createdAt,value
2023-04-12T00:01:06.067Z,60.22
2023-04-12T00:03:37.776Z,60.47
2023-04-12T00:06:07.355Z,60.24
2023-04-12T00:08:35.403Z,59.93
2023-04-12T00:11:03.739Z,61.21
2023-04-12T00:13:31.781Z,58.51
2023-04-12T00:15:59.871Z,58.96
2023-04-12T00:18:27.453Z,58.69
2023-04-12T00:20:58.073Z,59.71
2023-04-12T00:23:26.492Z,59.55
2023-04-12T00:25:54.088Z,59.22
2023-04-12T00:28:21.769Z,59.68
2023-04-12T00:30:50.739Z,59.50
2023-04-12T00:33:18.026Z,60.46
2023-04-12T00:35:45.833Z,60.14
2023-04-12T00:38:19.724Z,60.89
2023-04-12T00:41:07.313Z,60.99
2023-04-12T00:43:49.896Z,58.86
2023-04-12T00:46:32.693Z,59.67
2023-04-12T00:49:41.508Z,60.41
2023-04-12T00:52:15.809Z,59.92
2023-04-12T00:54:56.717Z,58.74
2023-04-12T00:57:48.381Z,58.92
2023-04-12T01:00:53.013Z,60.16
2023-04-12T01:03:23.422Z,59.42
2023-04-12T01:06:10.630Z,58.42
2023-04-12T01:08:40.942Z,59.37
2023-04-12T01:11:33.618Z,60.71
2023-04-12T01:14:04.605Z,58.61
2023-04-12T01:16:51.506Z,58.88
2023-04-12T01:19:31.791Z,59.64
2023-04-12T01:22:07.541Z,59.46
2023-04-12T01:25:16.447Z,61.38
2023-04-12T01:27:46.824Z,61.40
2023-04-12T01:30:15.975Z,60.86
2023-04-12T01:32:47.927Z,62.04
2023-04-12T01:35:19.666Z,61.18
2023-04-12T01:37:47.149Z,60.45
2023-04-12T01:40:18.015Z,60.12
2023-04-12T01:42:46.971Z,60.24
2023-04-12T01:45:14.621Z,58.49
2023-04-12T01:47:42.907Z,59.36
2023-04-12T01:50:12.126Z,59.00
2023-04-12T01:53:18.684Z,59.72
2023-04-12T01:56:09.997Z,59.30
2023-04-12T01:58:57.421Z,60.13
2023-04-12T02:02:12.421Z,60.09
2023-04-12T02:04:41.934Z,59.78
2023-04-12T02:07:09.755Z,59.75
2023-04-12T02:09:38.734Z,59.57
2023-04-12T02:12:06.971Z,59.98
2023-04-12T02:14:35.878Z,60.46
2023-04-12T02:17:04.757Z,60.87
2023-04-12T02:19:32.839Z,60.92
2023-04-12T02:22:02.373Z,60.54
2023-04-12T02:24:33.804Z,60.63
2023-04-12T02:27:02.831Z,60.60
2023-04-12T02:29:31.462Z,60.35
2023-04-12T02:32:01.505Z,62.41
2023-04-12T02:34:34.258Z,61.29
2023-04-12T02:37:09.522Z,60.89
2023-04-12T02:39:41.641Z,62.98
2023-04-12T02:42:09.698Z,62.55
2023-04-12T02:44:38.017Z,60.90
2023-04-12T02:47:07.980Z,62.75
2023-04-12T02:49:39.068Z,61.81
2023-04-12T02:52:21.352Z,61.90
2023-04-12T02:55:22.145Z,61.13
2023-04-12T02:58:19.079Z,60.82
2023-04-12T03:01:15.533Z,61.67
2023-04-12T03:03:58.699Z,60.60
2023-04-12T03:06:33.570Z,60.76
2023-04-12T03:09:05.675Z,59.74
2023-04-12T03:11:34.928Z,60.51
2023-04-12T03:14:02.675Z,60.26
2023-04-12T03:16:32.433Z,60.88
2023-04-12T03:19:02.958Z,61.87
2023-04-12T03:21:32.554Z,61.94
2023-04-12T03:24:14.467Z,61.01
2023-04-12T03:27:09.720Z,59.99
2023-04-12T03:30:00.641Z,59.06
2023-04-12T03:32:52.625Z,59.08
2023-04-12T03:35:45.494Z,60.12
2023-04-12T03:38:36.561Z,60.66
2023-04-12T03:41:10.943Z,60.18
2023-04-12T03:43:38.770Z,60.26
2023-04-12T03:46:07.197Z,59.96
2023-04-12T03:48:36.457Z,58.42
2023-04-12T03:51:08.077Z,58.79
2023-04-12T03:53:37.077Z,58.30
2023-04-12T03:56:07.897Z,58.00
2023-04-12T03:58:36.323Z,57.33
2023-04-12T04:01:09.394Z,56.57
2023-04-12T04:03:38.141Z,58.03
2023-04-12T04:06:07.037Z,57.28
2023-04-12T04:11:16.969Z,57.38
2023-04-12T04:13:47.239Z,58.28
2023-04-12T04:16:18.341Z,58.26
2023-04-12T04:18:46.602Z,59.50
2023-04-12T04:21:16.177Z,59.61
2023-04-12T04:23:45.725Z,59.66
2023-04-12T04:26:15.796Z,62.19
2023-04-12T04:28:45.612Z,60.21
2023-04-12T04:31:14.312Z,60.94
2023-04-12T04:33:43.422Z,61.41
2023-04-12T04:36:16.552Z,61.35
2023-04-12T04:38:46.154Z,61.09
2023-04-12T04:41:23.693Z,61.34
2023-04-12T04:43:54.462Z,61.19
2023-04-12T04:46:24.933Z,60.75
2023-04-12T04:48:55.651Z,61.38
2023-04-12T04:51:33.180Z,60.85
2023-04-12T04:54:03.841Z,61.35
2023-04-12T04:56:32.810Z,62.06
2023-04-12T04:59:09.893Z,59.57
2023-04-12T05:01:43.851Z,61.07
2023-04-12T05:04:17.055Z,60.76
2023-04-12T05:06:47.218Z,59.78
2023-04-12T05:09:16.769Z,60.02
2023-04-12T05:11:47.939Z,58.86
2023-04-12T05:14:17.444Z,58.99
2023-04-12T05:16:46.963Z,59.11
2023-04-12T05:19:22.031Z,59.61
2023-04-12T05:21:51.264Z,58.90
2023-04-12T05:24:19.953Z,58.70
2023-04-12T05:26:51.040Z,58.71
2023-04-12T05:29:19.296Z,58.47
2023-04-12T05:31:47.389Z,59.04
2023-04-12T05:36:54.734Z,56.93
2023-04-12T05:39:24.307Z,56.56
2023-04-12T05:41:53.826Z,56.82
2023-04-12T05:44:21.266Z,56.95
2023-04-12T05:46:49.052Z,56.96
2023-04-12T05:49:36.805Z,55.55
2023-04-12T05:52:13.739Z,55.18
2023-04-12T05:54:43.029Z,55.00
2023-04-12T05:57:12.824Z,55.99
2023-04-12T05:59:46.671Z,55.31
2023-04-12T06:02:21.069Z,56.01
2023-04-12T06:04:51.604Z,55.25
2023-04-12T06:07:21.332Z,54.86
2023-04-12T06:09:50.198Z,55.30
2023-04-12T06:12:32.988Z,55.01
2023-04-12T06:15:15.740Z,52.55
2023-04-12T06:17:43.902Z,53.86
2023-04-12T06:20:12.358Z,52.99
2023-04-12T06:22:41.804Z,52.69
2023-04-12T06:25:10.807Z,53.87
2023-04-12T06:27:40.904Z,53.77
2023-04-12T06:30:10.688Z,54.16
2023-04-12T06:35:14.769Z,52.62
2023-04-12T06:38:06.821Z,52.43
2023-04-12T06:40:48.692Z,53.09
2023-04-12T06:43:37.745Z,51.68
2023-04-12T06:46:29.834Z,52.89
2023-04-12T06:49:11.978Z,52.87
2023-04-12T06:52:04.685Z,53.04
2023-04-12T06:54:52.267Z,52.05
2023-04-12T06:57:34.830Z,52.31
2023-04-12T07:00:26.150Z,52.39
2023-04-12T07:03:10.479Z,51.26
2023-04-12T07:05:55.424Z,51.10
2023-04-12T07:11:24.782Z,50.94
2023-04-12T07:14:15.777Z,51.13
2023-04-12T07:16:55.805Z,50.39
2023-04-12T07:19:39.642Z,50.41
2023-04-12T07:22:23.253Z,50.43
2023-04-12T07:25:10.695Z,49.10
2023-04-12T07:28:03.640Z,49.59
2023-04-12T07:30:47.447Z,49.61
2023-04-12T07:36:16.831Z,47.90
2023-04-12T07:39:14.442Z,48.54
2023-04-12T07:41:54.634Z,47.63
2023-04-12T07:44:49.745Z,47.72
2023-04-12T07:47:35.869Z,46.19
2023-04-12T07:50:18.491Z,46.60
2023-04-12T07:53:24.698Z,46.46
2023-04-12T07:56:18.246Z,45.64
2023-04-12T07:59:01.230Z,44.81
2023-04-12T08:01:56.441Z,43.57
2023-04-12T08:04:39.523Z,44.89
2023-04-12T08:07:32.577Z,44.43
2023-04-12T08:10:12.780Z,43.37
2023-04-12T08:13:00.837Z,42.67
2023-04-12T08:15:56.907Z,42.13
2023-04-12T08:18:40.962Z,44.23
2023-04-12T08:21:36.294Z,41.64
2023-04-12T08:24:21.826Z,40.66
2023-04-12T08:27:14.100Z,40.59
2023-04-12T08:29:53.936Z,41.72
2023-04-12T08:32:45.806Z,42.96
2023-04-12T08:35:32.793Z,40.42
2023-04-12T08:38:41.542Z,40.69
2023-04-12T08:41:05.905Z,40.05
2023-04-12T08:43:57.806Z,40.44
2023-04-12T08:46:40.043Z,39.88
2023-04-12T08:49:25.894Z,37.57
2023-04-12T08:52:17.901Z,37.13
2023-04-12T08:55:03.289Z,37.96
2023-04-12T08:57:56.866Z,38.70
2023-04-12T09:00:37.225Z,38.37
2023-04-12T09:03:33.353Z,39.61
2023-04-12T09:06:12.871Z,37.17
2023-04-12T09:08:56.359Z,38.33
2023-04-12T09:11:51.228Z,35.39
2023-04-12T09:14:30.962Z,36.66
2023-04-12T09:17:26.569Z,36.60
2023-04-12T09:20:19.022Z,35.43
2023-04-12T09:23:05.816Z,36.50
2023-04-12T09:25:57.648Z,34.66
2023-04-12T09:28:46.471Z,33.65
2023-04-12T09:31:40.589Z,35.44
2023-04-12T09:34:31.136Z,33.60
2023-04-12T09:37:26.520Z,33.80
2023-04-12T09:40:07.589Z,33.47
2023-04-12T09:43:03.981Z,32.87
2023-04-12T09:45:46.661Z,33.79
2023-04-12T09:48:54.521Z,31.59
2023-04-12T09:51:37.865Z,32.48
2023-04-12T09:54:23.771Z,33.02
2023-04-12T09:57:27.156Z,33.64
2023-04-12T10:00:18.268Z,33.61
2023-04-12T10:03:08.389Z,33.54
2023-04-12T10:06:05.723Z,32.77
2023-04-12T10:08:44.745Z,29.98
2023-04-12T10:11:27.334Z,30.41
2023-04-12T10:14:18.897Z,30.62
2023-04-12T10:16:59.819Z,30.77
2023-04-12T10:19:43.286Z,32.26
2023-04-12T10:22:36.261Z,31.84
2023-04-12T10:25:22.838Z,30.30
2023-04-12T10:28:21.927Z,29.07
2023-04-12T10:31:31.772Z,30.07
2023-04-12T10:34:15.881Z,31.06
2023-04-12T10:36:59.499Z,30.04
2023-04-12T10:39:54.753Z,31.30
2023-04-12T10:42:35.757Z,27.55
2023-04-12T10:45:24.910Z,28.90
2023-04-12T10:48:07.188Z,27.66
2023-04-12T10:51:25.705Z,28.50
2023-04-12T10:54:17.404Z,29.21
2023-04-12T10:57:10.084Z,29.14
2023-04-12T10:59:57.801Z,27.11
2023-04-12T11:03:06.558Z,28.08
2023-04-12T11:06:16.149Z,28.12
2023-04-12T11:08:46.155Z,27.01
2023-04-12T11:11:34.949Z,27.79
2023-04-12T11:14:22.079Z,25.70
2023-04-12T11:19:54.650Z,25.57
2023-04-12T11:22:46.539Z,27.47
2023-04-12T11:25:29.151Z,25.36
2023-04-12T11:28:25.202Z,26.44
2023-04-12T11:30:59.126Z,26.54
2023-04-12T11:36:34.304Z,25.38
2023-04-12T11:39:14.035Z,25.62
2023-04-12T11:42:12.636Z,26.40
2023-04-12T11:44:58.434Z,25.05
2023-04-12T11:47:44.860Z,24.24
2023-04-12T11:50:28.986Z,24.41
2023-04-12T11:53:27.800Z,24.54
2023-04-12T11:56:08.904Z,26.04
2023-04-12T11:58:53.187Z,26.69
2023-04-12T12:01:50.842Z,26.69
2023-04-12T12:04:35.224Z,25.96
2023-04-12T12:10:01.785Z,23.62
2023-04-12T12:12:52.670Z,25.51
2023-04-12T12:15:25.186Z,24.54
2023-04-12T12:18:09.824Z,26.02
2023-04-12T12:20:53.094Z,25.29
2023-04-12T12:23:39.665Z,23.90
2023-04-12T12:30:11.733Z,24.15
2023-04-12T12:33:07.141Z,24.64
2023-04-12T12:35:59.266Z,25.43
2023-04-12T12:38:54.764Z,24.65
2023-04-12T12:41:39.373Z,26.32
2023-04-12T12:44:29.282Z,23.65
2023-04-12T12:47:14.618Z,25.57
2023-04-12T12:49:59.094Z,24.13
2023-04-12T12:52:43.103Z,23.41
2023-04-12T12:58:11.889Z,25.10
2023-04-12T13:00:48.063Z,25.12
2023-04-12T13:03:33.102Z,25.26
2023-04-12T13:06:17.607Z,26.57
2023-04-12T13:08:57.778Z,24.52
2023-04-12T13:11:53.872Z,25.14
2023-04-12T13:14:45.323Z,23.58
2023-04-12T13:17:16.669Z,25.39
2023-04-12T13:19:57.737Z,24.00
2023-04-12T13:22:41.867Z,24.85
2023-04-12T13:28:20.921Z,24.58
2023-04-12T13:31:04.015Z,25.22
2023-04-12T13:33:46.969Z,24.75
2023-04-12T13:36:31.202Z,26.09
2023-04-12T13:39:26.264Z,25.74
2023-04-12T13:42:09.909Z,23.78
2023-04-12T13:44:52.835Z,23.64
2023-04-12T13:47:37.127Z,23.38
2023-04-12T13:50:31.495Z,24.41
2023-04-12T13:53:14.696Z,24.91
2023-04-12T13:56:10.965Z,23.59
2023-04-12T13:58:53.109Z,23.60
2023-04-12T14:01:46.138Z,24.81
2023-04-12T14:04:31.222Z,25.49
2023-04-12T14:07:43.581Z,24.60
2023-04-12T14:10:29.207Z,23.58
2023-04-12T14:13:28.983Z,25.01
2023-04-12T14:16:53.797Z,25.06
2023-04-12T14:19:42.627Z,23.47
2023-04-12T14:22:26.709Z,23.30
2023-04-12T14:25:18.910Z,23.21
2023-04-12T14:28:16.832Z,24.01
2023-04-12T14:30:57.185Z,25.03
2023-04-12T14:33:49.043Z,23.89
2023-04-12T14:36:34.700Z,23.37
2023-04-12T14:39:36.655Z,22.62
2023-04-12T14:42:05.843Z,21.43
2023-04-12T14:44:52.698Z,22.02
2023-04-12T14:47:39.030Z,21.83
2023-04-12T14:50:38.756Z,23.23
2023-04-12T14:53:28.299Z,23.09
2023-04-12T14:56:23.773Z,22.96
2023-04-12T14:59:14.078Z,22.02
2023-04-12T15:01:58.553Z,22.66
2023-04-12T15:04:53.818Z,22.30
2023-04-12T15:07:46.237Z,22.72
2023-04-12T15:10:33.040Z,21.79
2023-04-12T15:13:33.748Z,21.13
2023-04-12T15:16:16.019Z,21.65
2023-04-12T15:19:18.901Z,22.14
2023-04-12T15:21:55.626Z,22.31
2023-04-12T15:24:51.393Z,21.68
2023-04-12T15:27:47.697Z,22.22
2023-04-12T15:30:31.722Z,21.06
2023-04-12T15:33:27.276Z,20.22
2023-04-12T15:36:11.605Z,20.12
2023-04-12T15:41:47.466Z,20.41
2023-04-12T15:44:34.239Z,20.40
2023-04-12T15:47:29.709Z,19.39
2023-04-12T15:50:29.020Z,19.98
2023-04-12T15:53:21.672Z,20.40
2023-04-12T15:56:26.682Z,19.94
2023-04-12T15:59:18.791Z,20.00
2023-04-12T16:02:15.724Z,20.44
2023-04-12T16:05:17.133Z,21.71
2023-04-12T16:10:27.031Z,20.28
2023-04-12T16:12:56.660Z,20.68
2023-04-12T16:15:27.054Z,22.33
2023-04-12T16:20:34.776Z,21.31
2023-04-12T16:23:17.639Z,20.90
2023-04-12T16:28:29.675Z,22.54
2023-04-12T16:31:00.770Z,22.04
2023-04-12T16:33:45.168Z,23.08
2023-04-12T16:36:16.719Z,22.43
2023-04-12T16:38:45.606Z,22.84
2023-04-12T16:41:20.604Z,21.58
2023-04-12T16:46:34.002Z,22.58
2023-04-12T16:49:08.302Z,23.62
2023-04-12T16:51:55.816Z,21.88
2023-04-12T16:54:31.763Z,24.25
2023-04-12T16:57:08.802Z,25.60
2023-04-12T17:02:24.993Z,26.16
2023-04-12T17:04:57.044Z,26.68
2023-04-12T17:07:27.234Z,27.13
2023-04-12T17:10:01.177Z,26.60
2023-04-12T17:12:36.725Z,26.37
2023-04-12T17:15:04.536Z,27.65
2023-04-12T17:17:36.814Z,28.17
2023-04-12T17:23:03.643Z,29.50
2023-04-12T17:25:45.281Z,30.20
2023-04-12T17:28:44.820Z,31.56
2023-04-12T17:34:18.860Z,33.33
2023-04-12T17:37:07.246Z,34.76
2023-04-12T17:39:54.540Z,34.01
2023-04-12T17:42:48.775Z,33.93
2023-04-12T17:45:32.941Z,33.59
2023-04-12T17:48:32.893Z,33.70
2023-04-12T17:51:21.930Z,33.61
2023-04-12T17:54:17.127Z,33.36
2023-04-12T17:57:20.750Z,34.92
2023-04-12T18:00:16.015Z,35.08
2023-04-12T18:03:10.861Z,35.37
2023-04-12T18:06:11.889Z,35.01
2023-04-12T18:08:53.054Z,35.97
2023-04-12T18:11:47.030Z,36.13
2023-04-12T18:14:41.760Z,36.56
2023-04-12T18:23:02.784Z,37.60
2023-04-12T18:25:46.813Z,37.84
2023-04-12T18:28:23.899Z,37.88
2023-04-12T18:30:58.157Z,37.40
2023-04-12T18:33:33.024Z,37.12
2023-04-12T18:36:12.953Z,36.51
2023-04-12T18:38:49.792Z,36.73
2023-04-12T18:41:27.579Z,36.59
2023-04-12T18:44:05.165Z,39.38
2023-04-12T18:46:37.039Z,40.68
2023-04-12T18:49:12.770Z,40.71
2023-04-12T18:51:48.128Z,40.67
2023-04-12T18:54:27.257Z,40.42
2023-04-12T18:59:38.815Z,39.62
2023-04-12T19:04:57.837Z,39.95
2023-04-12T19:10:05.190Z,41.54
2023-04-12T19:12:41.019Z,40.83
2023-04-12T19:15:11.700Z,40.45
2023-04-12T19:17:44.780Z,42.34
2023-04-12T19:20:28.721Z,42.21
2023-04-12T19:25:35.625Z,42.17
2023-04-12T19:28:11.692Z,42.49
2023-04-12T19:33:27.791Z,41.84
2023-04-12T19:36:01.640Z,43.66
2023-04-12T19:38:32.812Z,43.35
2023-04-12T19:41:07.448Z,44.29
2023-04-12T19:43:42.673Z,44.00
2023-04-12T19:46:18.830Z,43.27
2023-04-12T19:48:48.926Z,43.15
2023-04-12T19:51:24.272Z,43.22
2023-04-12T19:56:36.193Z,44.21
2023-04-12T19:59:06.860Z,43.87
2023-04-12T20:01:49.017Z,43.26
2023-04-12T20:04:35.906Z,43.36
2023-04-12T20:07:06.696Z,43.25
2023-04-12T20:09:37.653Z,43.15
2023-04-12T20:14:44.758Z,43.04
2023-04-12T20:17:13.050Z,43.90
2023-04-12T20:19:47.132Z,43.83
2023-04-12T20:22:16.721Z,44.41
2023-04-12T20:24:59.499Z,44.40
2023-04-12T20:27:42.631Z,44.22
2023-04-12T20:30:11.686Z,45.50
2023-04-12T20:32:42.087Z,45.19
2023-04-12T20:37:52.004Z,45.35
2023-04-12T20:40:23.356Z,45.20
2023-04-12T20:42:56.906Z,44.93
2023-04-12T20:45:31.302Z,45.35
2023-04-12T20:48:09.956Z,45.77
2023-04-12T20:50:41.081Z,45.85
2023-04-12T20:53:15.238Z,45.87
2023-04-12T20:55:56.590Z,46.23
2023-04-12T20:58:24.597Z,47.06
2023-04-12T21:00:57.097Z,47.20
2023-04-12T21:06:25.823Z,46.87
2023-04-12T21:08:53.960Z,46.59
2023-04-12T21:11:23.178Z,46.29
2023-04-12T21:13:54.751Z,45.27
2023-04-12T21:16:26.622Z,45.37
2023-04-12T21:18:56.901Z,45.58
2023-04-12T21:21:27.447Z,45.29
2023-04-12T21:24:05.835Z,47.37
2023-04-12T21:26:33.897Z,47.54
2023-04-12T21:29:02.745Z,46.87
2023-04-12T21:31:30.889Z,46.95
2023-04-12T21:34:07.320Z,47.57
2023-04-12T21:36:35.006Z,46.98
2023-04-12T21:39:04.444Z,47.01
2023-04-12T21:41:31.731Z,46.33
2023-04-12T21:44:00.114Z,46.45
2023-04-12T21:46:28.901Z,45.95
2023-04-12T21:48:57.288Z,46.95
2023-04-12T21:51:26.850Z,46.66
2023-04-12T21:53:54.642Z,47.16
2023-04-12T21:59:36.517Z,45.27
2023-04-12T22:02:04.085Z,46.93
2023-04-12T22:04:34.365Z,47.11
2023-04-12T22:07:06.813Z,46.94
2023-04-12T22:09:35.815Z,47.08
2023-04-12T22:12:10.057Z,46.88
2023-04-12T22:14:46.846Z,48.56
2023-04-12T22:17:14.987Z,48.56
2023-04-12T22:19:43.061Z,48.90
2023-04-12T22:22:12.218Z,48.34
2023-04-12T22:24:39.989Z,48.53
2023-04-12T22:27:09.395Z,49.22
2023-04-12T22:29:38.027Z,48.83
2023-04-12T22:32:05.668Z,48.07
2023-04-12T22:34:33.997Z,48.06
2023-04-12T22:37:03.508Z,47.57
2023-04-12T22:39:35.434Z,47.31
2023-04-12T22:42:04.251Z,47.10
2023-04-12T22:44:38.256Z,47.59
2023-04-12T22:47:08.608Z,47.22
2023-04-12T22:49:44.244Z,47.38
2023-04-12T22:52:12.186Z,47.48
2023-04-12T22:54:40.339Z,48.41
2023-04-12T22:57:17.809Z,48.60
2023-04-12T22:59:45.617Z,48.14
2023-04-12T23:02:14.929Z,49.00
2023-04-12T23:04:44.208Z,49.23
2023-04-12T23:07:19.102Z,49.25
2023-04-12T23:09:47.391Z,50.37
2023-04-12T23:12:15.333Z,49.60
2023-04-12T23:14:43.487Z,48.92
2023-04-12T23:17:11.092Z,49.46
2023-04-12T23:19:38.995Z,49.67
2023-04-12T23:22:06.372Z,49.76
2023-04-12T23:24:37.120Z,49.28
2023-04-12T23:27:05.959Z,49.44
2023-04-12T23:29:35.184Z,49.62
2023-04-12T23:32:03.449Z,48.24
2023-04-12T23:34:31.329Z,49.81
2023-04-12T23:37:00.160Z,49.75
2023-04-12T23:39:28.739Z,49.32
2023-04-12T23:41:56.452Z,50.08
2023-04-12T23:44:25.534Z,49.48
2023-04-12T23:46:53.334Z,49.20
2023-04-12T23:49:21.041Z,49.24
2023-04-12T23:51:48.361Z,49.57
2023-04-12T23:54:17.321Z,50.19
2023-04-12T23:56:45.941Z,49.75
2023-04-12T23:59:13.221Z,50.17
